Historyczne dane pomiarowe

Dodano dane terminowe – wersja testowa.

Dane z okresu 1951-2019

Wersja bazy: 1.34 [2019-03-16, lista zmian], aktualizacja planowana na 2019-04-15

Dane meteo z obszaru Polski uzyskane na podstawie danych udostępnionych przez Instytut Meteorologii i Gospodarki Wodnej – Państwowy Instytut Badawczy.

 

Wybierz Datę:    

       

TemperaturaWilgotnośćWiatrCiśnienieOpadyŚniegCzas trwania zjawisk
 Stacja t tx tn tng RH VA  wxwx mslp ppp RRR   cm mm wxwxwxwxwxwxwx
1961-08-14 10.1 17.2 3.3--- 3.3 1.3---- 0.0------------
1961-08-13 10.0 13.3 8.6--- 7.3 1.3---- 17.5------------
1961-08-12 15.7 24.1 11.9--- 5.7 2.3---- 23.7------------
1961-08-11 20.5 30.9 14.7--- 1.0 1.7---- 0.0------------
1961-08-10 20.0 30.4 14.9--- 2.3 0.7---- 0.0------------
1961-08-09 20.5 28.4 14.3--- 4.3 1.0---- 3.1------------
1961-08-08 18.8 25.6 15.0--- 4.0 0.7---- 2.4------------
1961-08-07 20.8 28.4 11.3--- 3.7 2.0---- 0.0------------
1961-08-06 21.4 27.8 11.3--- 0.0 1.7---- 0.0------------
1961-08-05 15.2 21.7 11.7--- 4.7 1.0---- 0.0------------
1961-08-04 13.3 18.9 10.3--- 6.0 0.7---- 0.0------------
1961-08-03 15.2 20.1 10.1--- 8.0 1.0---- 7.0------------
1961-08-02 15.9 23.9 6.6--- 2.0 1.3---- 0.0------------
1961-08-01 12.0 18.9 8.1--- 4.0 1.7---- 0.0------------
1961-07-31 10.5 14.1 8.1--- 7.3 1.3---- 1.1------------
1961-07-30 9.2 10.3 8.3--- 8.0 1.3---- 31.5------------
1961-07-29 11.2 16.5 9.1--- 8.0 0.7---- 36.2------------
1961-07-28 18.8 25.6 12.1--- 6.7 1.0---- 17.4------------
1961-07-27 19.7 23.9 9.8--- 1.7 2.0---- 1.2------------
1961-07-26 12.4 20.5 5.8--- 4.0 0.7---- 0.0------------
1961-07-25 11.5 14.8 3.1--- 5.7 1.0---- 0.0------------
1961-07-24 11.7 15.6 8.8--- 8.0 1.0---- 0.0------------
1961-07-23 13.9 17.9 6.4--- 4.3 0.7---- 0.0------------
1961-07-22 12.2 17.2 9.9--- 6.7 1.0---- 0.4------------
1961-07-21 13.1 17.2 6.8--- 6.3 1.3---- 1.4------------
1961-07-20 11.5 14.2 6.8--- 8.0 0.7---- 11.7------------
1961-07-19 12.0 17.6 6.8--- 6.7 1.0---- 3.3------------
1961-07-18 12.4 16.8 5.0--- 5.7 1.3---- 1.1------------
1961-07-17 13.7 19.9 9.1--- 3.7 1.0---- 0.6------------
1961-07-16 13.4 19.9 10.4--- 6.7 2.0---- 0.6------------
1961-07-15 15.7 22.3 7.3--- 6.7 1.3---- 8.3------------
1961-07-14 11.4 16.7 7.9--- 4.3 1.0---- 0.0------------
1961-07-13 17.8 26.2 9.8--- 2.7 1.3---- 11.6------------
1961-07-12 19.1 25.4 8.4--- 5.7 1.3---- 0.3------------
1961-07-11 13.3 19.2 5.8--- 3.0 1.0---- 0.0------------
1961-07-10 12.6 17.1 6.8--- 8.0 1.7---- 1.6------------
1961-07-09 13.2 19.9 5.9--- 4.7 3.3---- 1.6------------
1961-07-08 12.9 18.2 3.8--- 4.0 1.0---- 0.0------------
1961-07-07 11.5 15.4 2.1--- 7.3 0.7---- 0.0------------
1961-07-06 10.9 14.8 2.8--- 4.3 1.3---- 0.0------------
1961-07-05 10.8 20.3 7.3--- 5.0 0.7---- 0.0------------
1961-07-04 21.8 28.5 12.5--- 3.3 1.3---- 3.4------------
1961-07-03 19.5 27.9 8.3--- 1.3 1.0---- 0.0------------
1961-07-02 16.8 25.4 7.9--- 0.0 1.3---- 0.0------------
1961-07-01 16.1 23.9 6.7--- 0.7 1.0---- 0.0------------
1961-06-30 13.6 20.6 5.6--- 2.0 0.3---- 0.0------------
1961-06-29 12.4 17.4 3.5--- 4.7 1.0---- 0.0------------
1961-06-28 10.9 19.6 8.4--- 5.0 0.7---- 5.9------------
1961-06-27 21.8 29.6 11.4--- 2.0 1.0---- 6.3------------
1961-06-26 21.0 27.9 12.0--- 3.0 1.3---- 0.0------------
1961-06-25 18.3 26.6 8.6--- 1.3 2.7---- 0.0------------
1961-06-24 16.1 23.4 8.9--- 5.3 1.7---- 0.0------------
1961-06-23 14.6 20.5 11.3--- 3.3 1.0---- 0.0------------
1961-06-22 17.8 24.4 6.4--- 4.0 0.7---- 9.5------------
1961-06-21 13.4 21.1 3.1--- 0.3 1.0---- 0.0------------
1961-06-20 11.5 17.9 7.9--- 3.7 1.0---- 0.0------------
1961-06-19 18.3 25.2 11.7--- 4.0 1.3---- 0.0------------
1961-06-18 15.7 23.2 6.3--- 2.7 1.7---- 0.0------------
1961-06-17 12.9 19.4 3.4--- 3.0 0.7---- 0.0------------
1961-06-16 10.9 17.9 5.8--- 2.3 1.0---- 0.0------------
264.1 ms

 

Źródłem pochodzenia danych jest Instytut Meteorologii i Gospodarki Wodnej – Państwowy Instytut Badawczy. Dane Instytutu Meteorologii i Gospodarki Wodnej – Państwowego Instytutu Badawczego zostały przetworzone.

Dane źródłowe można odnaleźć na stronie https://dane.imgw.pl